METAR Data
IDs: Format: Raw Decoded Include TAF

Data at: 1939 UTC 14 Dec 2018

KCLL 141853Z 30016G21KT 10SM OVC016 08/04 A2998 RMK AO2 PK WND 28026/1834 SLP151 T00780044
KCLL 141753Z 31015G25KT 10SM OVC016 08/04 A2999 RMK AO2 PK WND 32026/1736 SLP154 T00780044 10078 20067 50016
KCLL 141653Z 29016G22KT 10SM OVC015 08/05 A3000 RMK AO2 PK WND 30028/1610 SLP157 T00780050
KCLL 141553Z 31020G27KT 10SM OVC016 08/04 A2999 RMK AO2 PK WND 32027/1552 SLP155 T00780044
KCLL 141513Z 30013G23KT 10SM OVC015 08/05 A2996 RMK AO2 PK WND 31027/1454 PRESRR T00780050
KCLL 141453Z 32017G29KT 10SM OVC014 07/05 A2994 RMK AO2 PK WND 31031/1359 SLP138 T00720050 53026
KCLL 141353Z 31017G28KT 10SM OVC012 07/06 A2992 RMK AO2 PK WND 29028/1304 SLP131 T00720056
KCLL 141253Z AUTO 30017G23KT 10SM OVC011 07/06 A2988 RMK AO2 PK WND 29027/1228 SLP117 T00720061
KCLL 141229Z AUTO 29018G27KT 10SM OVC010 07/06 A2987 RMK AO2 PK WND 29027/1228 CIG 006V012 T00720061
KCLL 141153Z AUTO 29016G23KT 6SM BR OVC009 07/06 A2986 RMK AO2 RAE25 SLP110 P0001 60001 70001 T00670061 10067 20067 53016
KCLL 141118Z AUTO 29014G23KT 10SM -RA OVC009 07/06 A2985 RMK AO2 P0001 T00670061
KCLL 141053Z AUTO 29015G22KT 9SM -RA OVC010 07/06 A2984 RMK AO2 RAB0957E30B50 SLP101 P0000 T00670056
KCLL 140953Z AUTO 29014G21KT 10SM OVC013 07/05 A2982 RMK AO2 SLP096 T00670050
KCLL 140853Z AUTO 28013KT 10SM OVC013 07/05 A2981 RMK AO2 RAE07B12E26 SLP094 P0000 60000 T00670050 58003
KCLL 140833Z AUTO 28013KT 10SM OVC014 07/06 A2982 RMK AO2 RAE07B12E26 P0000 T00670056
KCLL 140807Z AUTO 27015G21KT 10SM OVC015 07/05 A2982 RMK AO2 RAE07 P0000 T00670050
KCLL 140753Z AUTO 28015KT 10SM -RA OVC014 07/05 A2982 RMK AO2 RAB53 SLP096 P0000 T00670050
KCLL 140740Z AUTO 27013KT 10SM OVC014 07/05 A2982 RMK AO2 T00670050
KCLL 140653Z AUTO 27010KT 10SM OVC015 07/05 A2982 RMK AO2 RAE27 SLP094 P0000 T00670050
KCLL 140623Z AUTO 27012KT 10SM -RA OVC015 07/06 A2982 RMK AO2 P0000 T00670056
KCLL 140553Z AUTO 26010KT 7SM -RA OVC013 07/06 A2982 RMK AO2 RAB01 SLP096 P0000 60000 T00670061 10161 20067 402280067 57001
KCLL 140514Z AUTO 27012KT 4SM -RA BR BKN014 OVC018 07/06 A2983 RMK AO2 RAB01 P0000 T00670056
KCLL 140453Z AUTO 27013KT 10SM OVC018 07/04 A2983 RMK AO2 SLP099 T00720044
KCLL 140353Z AUTO 27014G23KT 10SM OVC024 08/03 A2982 RMK AO2 SLP096 T00830033
KCLL 140253Z AUTO 27015G21KT 10SM BKN027 08/03 A2983 RMK AO2 SLP098 T00830033 51029
KCLL 140153Z 29018G30KT 10SM CLR 09/03 A2980 RMK AO2 PK WND 29030/0151 SLP091 T00940028
KCLL 140053Z 28014G21KT 10SM CLR 12/06 A2978 RMK AO2 PK WND 27028/0019 SLP083 T01220056
KCLL 132353Z 28011KT 10SM CLR 16/01 A2974 RMK AO2 SLP068 T01610006 10228 20161 53014
KCLL 132253Z 27010KT 10SM CLR 19/03 A2972 RMK AO2 SLP061 T01890028
KCLL 132153Z 27013KT 10SM CLR 21/07 A2971 RMK AO2 SLP056 T02060072
KCLL 132053Z 27015KT 10SM FEW100 21/08 A2970 RMK AO2 PK WND 25027/2043 SLP053 T02110083 55001
KCLL 131953Z 27012KT 10SM BKN100 22/11 A2969 RMK AO2 SLP050 T02170111
KCLL 131853Z 24011KT 10SM CLR 22/12 A2969 RMK AO2 SLP049 T02220122
KCLL 131753Z 24012KT 10SM CLR 22/14 A2970 RMK AO2 SLP054 T02170139 10217 20167 56015
KCLL 131732Z 23011KT 10SM SCT022 21/14 A2971 RMK AO2 T02110144
KCLL 131653Z 20007KT 10SM FEW017 SCT022 BKN027 20/17 A2972 RMK AO2 SLP060 T02000167
KCLL 131648Z 19009KT 10SM BKN019 BKN027 20/16 A2972 RMK AO2
KCLL 131639Z 20009KT 10SM FEW016 SCT023 20/17 A2973 RMK AO2 T02000167
KCLL 131553Z 20008KT 10SM SCT014 BKN022 BKN110 19/17 A2975 RMK AO2 SLP070 T01890172
KCLL 131531Z 18009KT 10SM FEW009 BKN025 19/18 A2975 RMK AO2 T01890178
KCLL 131521Z 18008KT 10SM FEW007 SCT021 SCT028 18/18 A2975 RMK AO2 T01830178
KCLL 131453Z 16006KT 10SM CLR 18/18 A2974 RMK AO2 SLP069 T01830178 51008
KCLL 131414Z 17004KT 10SM FEW012 FEW018 SCT038 17/17 A2974 RMK AO2 T01720172
KCLL 131404Z 16005KT 10SM FEW004 SCT012 BKN018 17/17 A2974 RMK AO2 T01720172
KCLL 131353Z 15006KT 8SM SCT003 OVC013 17/17 A2974 RMK AO2 SLP068 T01720167
KCLL 131253Z AUTO 16006KT 10SM BKN004 OVC019 17/17 A2973 RMK AO2 CIG 003V008 SLP066 T01720172
KCLL 131233Z AUTO 16006KT 10SM OVC004 17/17 A2973 RMK AO2 T01720172
KCLL 131153Z AUTO 17007KT 10SM BKN006 BKN024 OVC036 17/17 A2972 RMK AO2 SLP061 60005 70005 T01720172 10178 20167 56009
KCLL 131131Z AUTO 13008KT 10SM BKN005 OVC045 17/17 A2971 RMK AO2 CIG 004V008 T01720172
KCLL 131108Z AUTO 15006KT 10SM OVC004 17/17 A2973 RMK AO2 T01720167
KCLL 131053Z AUTO 15004KT 10SM BKN005 OVC008 17/17 A2973 RMK AO2 SLP063 T01670167
KCLL 131015Z AUTO 13007KT 10SM BKN008 OVC015 17/17 A2972 RMK AO2 CIG 004V011 T01670167
KCLL 130953Z AUTO 14006KT 10SM SCT006 OVC016 17/17 A2973 RMK AO2 RAE50 SLP065 P0005 T01670167
KCLL 130943Z AUTO 15007KT 9SM -RA FEW006 BKN016 OVC020 17/17 A2974 RMK AO2 LTG DSNT NE P0005 T01670167
KCLL 130916Z AUTO 21004KT 4SM -RA BR SCT006 BKN014 OVC027 17/17 A2975 RMK AO2 LTG DSNT NE AND SE P0004 T01670167
KCLL 130903Z AUTO 18005KT 5SM -RA BR BKN014 BKN019 OVC028 17/17 A2975 RMK AO2 LTG DSNT SE P0002 T01720167
KCLL 130853Z AUTO 13006KT 10SM VCTS -RA BKN014 OVC028 17/16 A2975 RMK AO2 LTG DSNT SE AND S RAB53 SLP070 P0000 60000 T01720161 58028
KCLL 130846Z AUTO 13006KT 10SM VCTS OVC013 17/16 A2975 RMK AO2 LTG DSNT E AND SE PRESFR T01720161
KCLL 130829Z AUTO 14006KT 10SM VCTS OVC015 17/16 A2977 RMK AO2 LTG DSNT E AND SE T01720161
KCLL 130753Z AUTO 16008KT 10SM BKN017 OVC023 17/16 A2980 RMK AO2 LTG DSNT SE AND S SLP087 T01720161